createdAt,value
2018-06-12T00:00:17.014Z,11.30
2018-06-12T00:02:46.135Z,12.07
2018-06-12T00:05:14.952Z,11.57
2018-06-12T00:07:43.977Z,11.13
2018-06-12T00:10:13.151Z,12.00
2018-06-12T00:12:41.933Z,11.70
2018-06-12T00:15:11.293Z,11.40
2018-06-12T00:17:40.103Z,11.30
2018-06-12T00:20:08.883Z,10.70
2018-06-12T00:22:38.076Z,11.07
2018-06-12T00:25:06.817Z,11.40
2018-06-12T00:27:35.664Z,11.47
2018-06-12T00:30:04.676Z,11.80
2018-06-12T00:32:33.341Z,11.00
2018-06-12T00:35:02.079Z,10.90
2018-06-12T00:37:31.601Z,11.10
2018-06-12T00:40:00.587Z,11.30
2018-06-12T00:42:29.238Z,11.83
2018-06-12T00:44:57.874Z,11.47
2018-06-12T00:47:26.516Z,11.77
2018-06-12T00:49:55.138Z,11.30
2018-06-12T00:52:23.766Z,12.20
2018-06-12T00:54:52.715Z,11.90
2018-06-12T00:57:21.769Z,12.07
2018-06-12T00:59:51.030Z,11.50
2018-06-12T01:02:19.693Z,12.80
2018-06-12T01:04:49.027Z,12.50
2018-06-12T01:07:18.042Z,12.50
2018-06-12T01:09:46.955Z,11.30
2018-06-12T01:12:16.170Z,12.87
2018-06-12T01:14:45.043Z,11.90
2018-06-12T01:17:13.917Z,12.00
2018-06-12T01:19:42.661Z,12.17
2018-06-12T01:22:11.948Z,12.10
2018-06-12T01:24:40.706Z,12.17
2018-06-12T01:27:09.414Z,11.53
2018-06-12T01:29:38.113Z,12.53
2018-06-12T01:32:06.794Z,12.00
2018-06-12T01:34:35.546Z,12.30
2018-06-12T01:37:04.258Z,12.83
2018-06-12T01:39:32.937Z,12.47
2018-06-12T01:42:01.814Z,12.23
2018-06-12T01:44:30.590Z,12.97
2018-06-12T01:46:59.385Z,13.17
2018-06-12T01:49:28.191Z,12.63
2018-06-12T01:51:57.169Z,12.37
2018-06-12T01:54:26.465Z,13.17
2018-06-12T01:56:55.975Z,12.50
2018-06-12T01:59:24.680Z,13.43
2018-06-12T02:01:53.424Z,12.70
2018-06-12T02:04:22.210Z,11.70
2018-06-12T02:06:50.896Z,11.53
2018-06-12T02:15:00.248Z,11.80
2018-06-12T02:17:28.960Z,11.63
2018-06-12T02:19:57.960Z,11.83
2018-06-12T02:22:26.670Z,11.00
2018-06-12T02:24:55.591Z,11.53
2018-06-12T02:27:24.282Z,10.80
2018-06-12T02:29:52.991Z,11.00
2018-06-12T02:32:21.658Z,11.43
2018-06-12T02:34:50.468Z,10.90
2018-06-12T02:37:19.904Z,11.00
2018-06-12T02:39:48.895Z,11.67
2018-06-12T02:42:17.619Z,11.10
2018-06-12T02:44:46.904Z,11.37
2018-06-12T02:47:16.761Z,10.80
2018-06-12T02:49:46.752Z,11.53
2018-06-12T02:52:15.427Z,11.00
2018-06-12T02:54:44.092Z,12.30
2018-06-12T02:57:12.884Z,10.70
2018-06-12T02:59:42.121Z,10.50
2018-06-12T03:02:11.197Z,10.87
2018-06-12T03:04:40.208Z,10.83
2018-06-12T03:07:08.959Z,10.90
2018-06-12T03:09:37.677Z,11.10
2018-06-12T03:12:06.436Z,10.50
2018-06-12T03:14:35.201Z,10.90
2018-06-12T03:17:04.280Z,10.63
2018-06-12T03:19:32.964Z,10.90
2018-06-12T03:22:01.630Z,10.33
2018-06-12T03:24:30.264Z,10.50
2018-06-12T03:26:58.942Z,10.60
2018-06-12T03:29:27.887Z,10.20
2018-06-12T03:31:56.552Z,10.23
2018-06-12T03:34:25.495Z,10.73
2018-06-12T03:36:54.457Z,10.20
2018-06-12T03:39:23.159Z,10.47
2018-06-12T03:41:52.329Z,10.80
2018-06-12T03:44:21.452Z,10.30
2018-06-12T03:46:50.145Z,10.23
2018-06-12T03:49:18.847Z,10.57
2018-06-12T03:51:47.582Z,10.60
2018-06-12T03:54:16.531Z,11.23
2018-06-12T03:56:45.610Z,10.53
2018-06-12T03:59:14.276Z,10.70
2018-06-12T04:01:42.930Z,10.50
2018-06-12T04:04:11.726Z,11.20
2018-06-12T04:06:40.448Z,10.90
2018-06-12T04:09:09.694Z,10.97
2018-06-12T04:11:39.167Z,11.40
2018-06-12T04:14:07.879Z,12.13
2018-06-12T04:16:37.257Z,11.27
2018-06-12T04:19:07.277Z,10.50
2018-06-12T04:21:36.404Z,10.87
2018-06-12T04:24:05.340Z,10.93
2018-06-12T04:26:34.012Z,11.37
2018-06-12T04:29:03.252Z,12.00
2018-06-12T04:31:32.004Z,11.50
2018-06-12T04:34:00.911Z,11.57
2018-06-12T04:36:29.640Z,11.70
2018-06-12T04:38:58.639Z,11.30
2018-06-12T04:41:27.571Z,11.20
2018-06-12T04:43:56.330Z,11.70
2018-06-12T04:46:24.976Z,10.90
2018-06-12T04:48:53.761Z,11.27
2018-06-12T04:51:22.445Z,11.17
2018-06-12T04:53:51.349Z,11.40
2018-06-12T04:56:19.979Z,11.67
2018-06-12T04:58:48.777Z,11.37
2018-06-12T05:01:18.409Z,11.03
2018-06-12T05:03:47.141Z,11.80
2018-06-12T05:06:15.829Z,11.60
2018-06-12T05:08:44.575Z,12.30
2018-06-12T05:11:13.231Z,11.87
2018-06-12T05:13:41.845Z,11.70
2018-06-12T05:16:10.673Z,11.87
2018-06-12T05:18:39.672Z,12.13
2018-06-12T05:21:08.628Z,12.10
2018-06-12T05:23:37.653Z,12.13
2018-06-12T05:26:06.505Z,11.27
2018-06-12T05:28:35.275Z,11.70
2018-06-12T05:31:03.972Z,11.67
2018-06-12T05:33:32.637Z,12.10
2018-06-12T05:36:01.325Z,11.80
2018-06-12T05:38:30.009Z,11.90
2018-06-12T05:40:58.732Z,11.60
2018-06-12T05:43:27.961Z,11.43
2018-06-12T05:45:57.261Z,12.27
2018-06-12T05:48:26.184Z,11.57
2018-06-12T05:50:55.462Z,13.13
2018-06-12T05:53:24.116Z,12.20
2018-06-12T05:55:53.060Z,12.07
2018-06-12T05:58:21.719Z,12.30
2018-06-12T06:00:50.821Z,12.47
2018-06-12T06:03:19.638Z,12.10
2018-06-12T06:05:48.271Z,11.53
2018-06-12T06:08:17.349Z,12.27
2018-06-12T06:10:46.207Z,12.10
2018-06-12T06:13:14.979Z,12.03
2018-06-12T06:15:43.742Z,12.00
2018-06-12T06:18:12.503Z,11.80
2018-06-12T06:20:41.196Z,11.90
2018-06-12T06:23:09.926Z,11.60
2018-06-12T06:25:39.023Z,11.40
2018-06-12T06:28:08.003Z,11.63
2018-06-12T06:30:36.684Z,15.17
2018-06-12T06:33:05.684Z,16.17
2018-06-12T06:35:34.500Z,11.90
2018-06-12T06:38:03.390Z,11.93
2018-06-12T06:40:32.202Z,11.43
2018-06-12T06:43:01.032Z,11.40
2018-06-12T06:45:29.780Z,11.50
2018-06-12T06:47:58.746Z,11.03
2018-06-12T06:50:27.559Z,11.13
2018-06-12T06:52:56.525Z,11.20
2018-06-12T06:55:25.282Z,10.77
2018-06-12T06:57:53.967Z,10.77
2018-06-12T07:00:23.000Z,11.07
2018-06-12T07:02:51.657Z,10.70
2018-06-12T07:05:20.733Z,11.47
2018-06-12T07:07:49.844Z,11.10
2018-06-12T07:10:18.900Z,10.80
2018-06-12T07:12:49.244Z,11.00
2018-06-12T07:15:19.890Z,10.40
2018-06-12T07:17:48.920Z,10.27
2018-06-12T07:21:28.543Z,10.47
2018-06-12T07:23:57.434Z,10.57
2018-06-12T07:26:26.144Z,9.97
2018-06-12T07:28:54.838Z,10.40
2018-06-12T07:31:23.594Z,9.97
2018-06-12T07:33:52.664Z,10.20
2018-06-12T07:36:21.757Z,9.77
2018-06-12T07:38:50.451Z,9.57
2018-06-12T07:41:19.976Z,9.90
2018-06-12T07:43:48.627Z,9.33
2018-06-12T07:46:17.299Z,9.03
2018-06-12T07:48:46.238Z,9.90
2018-06-12T07:51:14.855Z,9.57
2018-06-12T07:53:43.503Z,9.60
2018-06-12T07:56:12.181Z,9.90
2018-06-12T07:58:46.240Z,9.60
2018-06-12T08:01:16.723Z,9.30
2018-06-12T08:03:45.473Z,9.13
2018-06-12T08:06:14.777Z,9.37
2018-06-12T08:08:47.522Z,9.53
2018-06-12T08:11:22.021Z,9.90
2018-06-12T08:13:52.780Z,9.50
2018-06-12T08:16:21.749Z,9.90
2018-06-12T08:18:51.398Z,9.47
2018-06-12T08:21:21.913Z,9.37
2018-06-12T08:23:50.933Z,9.40
2018-06-12T08:26:22.417Z,9.63
2018-06-12T08:28:52.266Z,9.63
2018-06-12T08:31:20.967Z,9.33
2018-06-12T08:33:50.813Z,9.90
2018-06-12T08:36:20.052Z,9.20
2018-06-12T08:38:51.064Z,9.70
2018-06-12T08:41:19.979Z,9.80
2018-06-12T08:43:49.652Z,9.80
2018-06-12T08:46:20.776Z,9.90
2018-06-12T08:48:49.655Z,9.43
2018-06-12T08:51:18.621Z,9.97
2018-06-12T08:53:47.313Z,9.93
2018-06-12T08:56:16.891Z,10.10
2018-06-12T08:58:45.601Z,10.10
2018-06-12T09:01:16.190Z,10.53
2018-06-12T09:03:44.961Z,10.20
2018-06-12T09:06:17.749Z,10.13
2018-06-12T09:08:47.367Z,10.50
2018-06-12T09:11:17.758Z,10.83
2018-06-12T09:13:46.521Z,10.73
2018-06-12T09:16:15.703Z,11.07
2018-06-12T09:18:44.545Z,10.43
2018-06-12T09:21:13.631Z,10.17
2018-06-12T09:23:42.805Z,10.67
2018-06-12T09:26:11.643Z,10.67
2018-06-12T09:28:40.883Z,11.57
2018-06-12T09:31:09.788Z,10.83
2018-06-12T09:33:38.520Z,10.43
2018-06-12T09:36:12.685Z,10.63
2018-06-12T09:38:41.574Z,10.17
2018-06-12T09:41:12.193Z,10.37
2018-06-12T09:43:41.202Z,11.77
2018-06-12T09:46:10.075Z,9.77
2018-06-12T09:48:39.200Z,10.27
2018-06-12T09:51:08.599Z,9.90
2018-06-12T09:53:37.702Z,9.90
2018-06-12T09:56:08.906Z,9.77
2018-06-12T09:58:38.855Z,10.37
2018-06-12T10:01:13.833Z,9.90
2018-06-12T10:03:43.419Z,10.20
2018-06-12T10:06:12.879Z,10.03
2018-06-12T10:08:42.611Z,10.63
2018-06-12T10:11:11.369Z,10.67
2018-06-12T10:13:40.111Z,10.10
2018-06-12T10:16:11.026Z,10.50
2018-06-12T10:18:41.385Z,10.40
2018-06-12T10:21:10.201Z,10.77
2018-06-12T10:23:39.860Z,10.67
2018-06-12T10:26:08.564Z,10.13
2018-06-12T10:28:37.329Z,10.43
2018-06-12T10:31:07.151Z,10.53
2018-06-12T10:33:38.007Z,10.13
2018-06-12T10:36:07.001Z,10.60
2018-06-12T10:38:35.830Z,9.73
2018-06-12T10:41:05.189Z,10.23
2018-06-12T10:43:34.100Z,10.33
2018-06-12T10:46:02.852Z,11.50
2018-06-12T10:48:32.149Z,10.30
2018-06-12T10:51:01.009Z,10.40
2018-06-12T10:53:30.150Z,10.20
2018-06-12T10:56:00.053Z,10.70
2018-06-12T10:58:29.051Z,10.27
2018-06-12T11:01:03.592Z,10.93
2018-06-12T11:03:32.663Z,10.57
2018-06-12T11:06:01.642Z,10.80
2018-06-12T11:08:30.475Z,10.50
2018-06-12T11:10:59.597Z,9.93
2018-06-12T11:13:28.780Z,10.33
2018-06-12T11:15:58.148Z,10.37
2018-06-12T11:18:28.113Z,10.30
2018-06-12T11:20:58.391Z,10.00
2018-06-12T11:23:27.493Z,10.90
2018-06-12T11:25:56.693Z,10.50
2018-06-12T11:28:25.796Z,9.67
2018-06-12T11:30:55.484Z,10.20
2018-06-12T11:33:24.290Z,10.60
2018-06-12T11:35:53.796Z,10.57
2018-06-12T11:38:23.066Z,10.53
2018-06-12T11:40:52.199Z,10.17
2018-06-12T11:43:21.429Z,10.27
2018-06-12T11:45:50.443Z,10.10
2018-06-12T11:48:20.644Z,9.90
2018-06-12T11:50:49.471Z,9.37
2018-06-12T11:53:19.690Z,9.97
2018-06-12T11:55:49.679Z,9.20
2018-06-12T11:58:21.187Z,9.70
2018-06-12T12:00:50.688Z,10.30
2018-06-12T12:03:20.189Z,9.97
2018-06-12T12:05:51.004Z,10.70
2018-06-12T12:08:22.168Z,9.77
2018-06-12T12:10:51.551Z,9.87
2018-06-12T12:13:20.917Z,9.80
2018-06-12T12:15:50.814Z,9.63
2018-06-12T12:18:22.589Z,9.87
2018-06-12T12:20:51.898Z,9.57
2018-06-12T12:23:29.288Z,9.57
2018-06-12T12:25:58.962Z,9.07
2018-06-12T12:28:28.399Z,8.97
2018-06-12T12:30:58.647Z,8.73
2018-06-12T12:33:30.450Z,8.60
2018-06-12T12:36:03.831Z,8.70
2018-06-12T12:38:35.550Z,8.67
2018-06-12T12:41:05.016Z,8.90
2018-06-12T12:43:36.979Z,8.87
2018-06-12T12:46:10.534Z,8.40
2018-06-12T12:48:40.557Z,8.35
2018-06-12T12:51:11.639Z,9.27
2018-06-12T12:53:41.213Z,8.28
2018-06-12T12:56:11.646Z,8.40
2018-06-12T12:58:42.676Z,8.73
2018-06-12T13:01:13.785Z,8.65
2018-06-12T13:03:43.393Z,8.23
2018-06-12T13:06:14.123Z,8.20
2018-06-12T13:08:43.251Z,8.50
2018-06-12T13:11:12.360Z,8.68
2018-06-12T13:13:43.380Z,8.38
2018-06-12T13:16:14.032Z,8.70
2018-06-12T13:18:44.373Z,8.48
2018-06-12T13:21:14.149Z,9.10
2018-06-12T13:23:43.457Z,8.38
2018-06-12T13:26:12.128Z,8.70
2018-06-12T13:28:41.883Z,8.50
2018-06-12T13:31:11.137Z,8.30
2018-06-12T13:33:40.231Z,8.65
2018-06-12T13:36:10.240Z,8.45
2018-06-12T13:38:39.986Z,8.73
2018-06-12T13:41:10.879Z,8.28
2018-06-12T13:43:39.726Z,9.20
2018-06-12T13:46:09.384Z,8.90
2018-06-12T13:48:38.216Z,8.87
2018-06-12T13:51:07.938Z,8.40
2018-06-12T13:53:37.548Z,8.60
2018-06-12T13:56:10.204Z,8.90
2018-06-12T13:58:41.019Z,8.57
2018-06-12T14:01:10.365Z,9.40
2018-06-12T14:03:39.669Z,8.73
2018-06-12T14:06:09.151Z,9.33
2018-06-12T14:08:39.682Z,9.27
2018-06-12T14:11:09.099Z,8.50
2018-06-12T14:13:38.358Z,9.30
2018-06-12T14:16:07.806Z,9.10
2018-06-12T14:18:37.430Z,9.30
2018-06-12T14:21:07.845Z,10.37
2018-06-12T14:23:38.277Z,11.27
2018-06-12T14:26:07.755Z,10.40
2018-06-12T14:28:36.923Z,10.57
2018-06-12T14:31:07.278Z,11.73
2018-06-12T14:33:37.112Z,10.80
2018-06-12T14:36:06.684Z,9.93
2018-06-12T14:38:36.399Z,9.30
2018-06-12T14:41:05.148Z,9.90
2018-06-12T14:43:35.308Z,10.27
2018-06-12T14:46:04.773Z,12.03
2018-06-12T14:48:36.040Z,9.30
2018-06-12T14:51:05.577Z,9.07
2018-06-12T14:53:34.732Z,9.40
2018-06-12T14:56:04.680Z,9.77
2018-06-12T14:58:34.738Z,9.77
2018-06-12T15:01:07.150Z,10.03
2018-06-12T15:03:36.577Z,9.33
2018-06-12T15:06:06.741Z,9.73
2018-06-12T15:08:37.460Z,9.80
2018-06-12T15:11:10.521Z,10.30
2018-06-12T15:13:40.337Z,9.20
2018-06-12T15:16:09.626Z,9.60
2018-06-12T15:18:39.650Z,9.50
2018-06-12T15:21:09.172Z,9.47
2018-06-12T15:23:38.016Z,8.90
2018-06-12T15:26:07.178Z,9.70
2018-06-12T15:28:36.414Z,9.70
2018-06-12T15:31:05.126Z,9.30
2018-06-12T15:33:34.690Z,9.10
2018-06-12T15:36:03.802Z,9.80
2018-06-12T15:38:34.479Z,9.40
2018-06-12T15:41:03.971Z,9.10
2018-06-12T15:43:32.888Z,9.20
2018-06-12T15:46:01.657Z,9.20
2018-06-12T15:48:30.408Z,8.93
2018-06-12T15:51:00.283Z,9.10
2018-06-12T15:53:29.548Z,9.50
2018-06-12T15:55:59.792Z,10.60
2018-06-12T15:58:28.566Z,10.43
2018-06-12T16:01:02.795Z,9.63
2018-06-12T16:03:38.122Z,9.70
2018-06-12T16:06:08.017Z,9.60
2018-06-12T16:08:36.870Z,9.17
2018-06-12T16:11:06.901Z,9.53
2018-06-12T16:13:37.168Z,9.17
2018-06-12T16:16:07.125Z,8.93
2018-06-12T16:18:36.020Z,9.00
2018-06-12T16:21:05.210Z,9.10
2018-06-12T16:23:34.709Z,8.70
2018-06-12T16:26:05.074Z,9.13
2018-06-12T16:28:34.554Z,9.17
2018-06-12T16:31:03.619Z,9.10
2018-06-12T16:33:33.165Z,9.17
2018-06-12T16:36:03.019Z,8.87
2018-06-12T16:38:32.219Z,8.90
2018-06-12T16:41:02.895Z,9.00
2018-06-12T16:43:34.534Z,9.30
2018-06-12T16:46:04.632Z,9.27
2018-06-12T16:48:34.537Z,9.17
2018-06-12T16:51:05.339Z,9.20
2018-06-12T16:53:34.957Z,9.27
2018-06-12T16:56:05.280Z,9.50
2018-06-12T16:58:34.654Z,9.07
2018-06-12T17:01:03.481Z,9.63
2018-06-12T17:03:34.236Z,9.17
2018-06-12T17:06:11.582Z,9.60
2018-06-12T17:08:40.640Z,9.50
2018-06-12T17:11:09.335Z,9.60
2018-06-12T17:13:39.547Z,9.33
2018-06-12T17:16:09.177Z,9.27
2018-06-12T17:18:39.978Z,9.23
2018-06-12T17:21:10.057Z,9.03
2018-06-12T17:23:38.845Z,9.60
2018-06-12T17:26:10.093Z,9.47
2018-06-12T17:28:46.547Z,9.30
2018-06-12T17:31:19.349Z,9.23
2018-06-12T17:33:52.016Z,9.67
2018-06-12T17:36:22.332Z,9.60
2018-06-12T17:38:51.690Z,8.80
2018-06-12T17:41:24.181Z,8.87
2018-06-12T17:43:54.399Z,9.83
2018-06-12T17:46:24.976Z,9.87
2018-06-12T17:48:55.574Z,9.17
2018-06-12T17:51:29.653Z,9.10
2018-06-12T17:54:02.853Z,9.77
2018-06-12T17:56:39.431Z,9.10
2018-06-12T17:59:08.173Z,9.67
2018-06-12T18:01:39.429Z,9.83
2018-06-12T18:04:08.867Z,9.37
2018-06-12T18:06:38.727Z,9.97
2018-06-12T18:09:08.539Z,10.03
2018-06-12T18:11:38.597Z,9.17
2018-06-12T18:14:07.305Z,9.20
2018-06-12T18:16:36.196Z,9.87
2018-06-12T18:19:06.094Z,9.03
2018-06-12T18:21:34.749Z,10.13
2018-06-12T18:24:03.428Z,9.43
2018-06-12T18:26:34.040Z,9.10
2018-06-12T18:29:03.427Z,9.70
2018-06-12T18:31:33.032Z,9.60
2018-06-12T18:34:02.197Z,9.67
2018-06-12T18:36:32.351Z,9.67
2018-06-12T18:39:01.786Z,8.93
2018-06-12T18:41:31.096Z,9.97
2018-06-12T18:44:00.870Z,9.93
2018-06-12T18:46:30.750Z,10.13
2018-06-12T18:49:02.431Z,9.93
2018-06-12T18:51:32.119Z,9.13
2018-06-12T18:54:06.116Z,9.57
2018-06-12T18:56:35.711Z,9.53
2018-06-12T18:59:04.954Z,9.83
2018-06-12T19:01:37.216Z,10.10
2018-06-12T19:04:06.261Z,9.40
2018-06-12T19:06:35.785Z,9.90
2018-06-12T19:09:07.675Z,10.13
2018-06-12T19:11:37.528Z,9.87
2018-06-12T19:14:06.837Z,10.03
2018-06-12T19:16:43.285Z,9.60
2018-06-12T19:19:13.237Z,9.80
2018-06-12T19:21:43.083Z,9.80
2018-06-12T19:24:11.937Z,10.20
2018-06-12T19:26:42.039Z,10.90
2018-06-12T19:29:12.653Z,10.00
2018-06-12T19:31:44.715Z,10.53
2018-06-12T19:34:13.433Z,10.03
2018-06-12T19:36:42.515Z,10.33
2018-06-12T19:39:12.835Z,10.20
2018-06-12T19:41:41.996Z,10.30
2018-06-12T19:44:11.671Z,10.70
2018-06-12T19:46:41.635Z,11.10
2018-06-12T19:49:11.502Z,10.30
2018-06-12T19:51:41.419Z,10.43
2018-06-12T19:54:10.175Z,10.40
2018-06-12T19:56:38.924Z,10.03
2018-06-12T19:59:07.894Z,10.40
2018-06-12T20:01:37.250Z,10.50
2018-06-12T20:04:06.655Z,10.90
2018-06-12T20:06:35.486Z,10.40
2018-06-12T20:09:07.046Z,10.47
2018-06-12T20:11:35.821Z,10.50
2018-06-12T20:14:05.476Z,9.50
2018-06-12T20:16:35.069Z,10.30
2018-06-12T20:19:04.101Z,9.73
2018-06-12T20:21:32.922Z,10.60
2018-06-12T20:24:02.950Z,10.40
2018-06-12T20:26:32.096Z,10.40
2018-06-12T20:29:01.370Z,10.20
2018-06-12T20:31:30.702Z,10.37
2018-06-12T20:34:00.259Z,10.13
2018-06-12T20:36:30.831Z,10.83
2018-06-12T20:39:00.640Z,9.73
2018-06-12T20:41:29.494Z,10.10
2018-06-12T20:43:58.828Z,10.30
2018-06-12T20:46:27.652Z,10.27
2018-06-12T20:48:57.693Z,10.43
2018-06-12T20:51:27.462Z,10.67
2018-06-12T20:53:56.495Z,10.17
2018-06-12T20:56:25.736Z,10.10
2018-06-12T20:58:54.860Z,10.80
2018-06-12T21:01:24.476Z,10.97
2018-06-12T21:03:55.124Z,10.30
2018-06-12T21:06:27.846Z,10.03
2018-06-12T21:08:57.830Z,10.30
2018-06-12T21:11:27.327Z,9.87
2018-06-12T21:13:57.084Z,10.57
2018-06-12T21:16:26.833Z,10.07
2018-06-12T21:18:56.254Z,9.67
2018-06-12T21:21:26.962Z,10.20
2018-06-12T21:23:56.116Z,10.27
2018-06-12T21:26:26.580Z,10.03
2018-06-12T21:28:56.429Z,9.60
2018-06-12T21:31:26.805Z,9.83
2018-06-12T21:33:56.406Z,10.03
2018-06-12T21:36:26.538Z,10.43
2018-06-12T21:38:56.602Z,10.40
2018-06-12T21:41:27.087Z,9.67
2018-06-12T21:43:56.959Z,10.07
2018-06-12T21:46:27.452Z,10.10
2018-06-12T21:48:56.228Z,9.80
2018-06-12T21:51:26.253Z,10.13
2018-06-12T21:53:54.952Z,10.03
2018-06-12T21:56:24.090Z,10.30
2018-06-12T21:58:53.601Z,10.00
2018-06-12T22:01:22.458Z,10.27
2018-06-12T22:03:52.630Z,12.07
2018-06-12T22:06:22.680Z,9.80
2018-06-12T22:08:52.536Z,10.07
2018-06-12T22:11:22.544Z,9.57
2018-06-12T22:13:51.169Z,9.83
2018-06-12T22:16:24.099Z,10.77
2018-06-12T22:18:53.414Z,10.30
2018-06-12T22:21:24.094Z,9.90
2018-06-12T22:23:54.443Z,9.70
2018-06-12T22:26:23.150Z,10.00
2018-06-12T22:28:52.560Z,10.40
2018-06-12T22:31:23.560Z,9.73
2018-06-12T22:33:52.986Z,10.40
2018-06-12T22:36:23.324Z,10.40
2018-06-12T22:38:52.315Z,10.00
2018-06-12T22:41:21.900Z,10.10
2018-06-12T22:43:50.755Z,9.47
2018-06-12T22:46:20.414Z,10.23
2018-06-12T22:48:49.995Z,9.57
2018-06-12T22:51:20.811Z,9.87
2018-06-12T22:53:50.576Z,10.27
2018-06-12T22:56:20.065Z,9.70
2018-06-12T22:58:48.726Z,9.57
2018-06-12T23:01:17.666Z,9.93
2018-06-12T23:03:47.854Z,10.13
2018-06-12T23:06:17.274Z,9.60
2018-06-12T23:08:46.850Z,10.17
2018-06-12T23:11:15.537Z,9.77
2018-06-12T23:13:44.757Z,10.33
2018-06-12T23:16:13.778Z,10.00
2018-06-12T23:18:44.191Z,10.00
2018-06-12T23:21:24.070Z,10.10
2018-06-12T23:23:53.576Z,10.30
2018-06-12T23:26:22.294Z,9.83
2018-06-12T23:28:51.974Z,9.60
2018-06-12T23:31:21.581Z,9.70
2018-06-12T23:33:50.931Z,9.60
2018-06-12T23:36:20.079Z,9.57
2018-06-12T23:38:50.526Z,9.80
2018-06-12T23:41:20.046Z,9.90
2018-06-12T23:43:50.182Z,9.50
2018-06-12T23:46:20.554Z,9.37
2018-06-12T23:48:49.571Z,9.30
2018-06-12T23:51:19.890Z,9.50
2018-06-12T23:53:49.306Z,9.20
2018-06-12T23:56:18.898Z,9.40
2018-06-12T23:58:50.292Z,9.70
